createdAt,value
2018-04-25T00:01:31.010Z,7.73
2018-04-25T00:03:57.110Z,7.63
2018-04-25T00:06:23.190Z,7.97
2018-04-25T00:08:49.293Z,6.97
2018-04-25T00:11:15.474Z,7.77
2018-04-25T00:13:41.570Z,7.00
2018-04-25T00:16:07.643Z,6.97
2018-04-25T00:18:33.754Z,6.83
2018-04-25T00:21:00.574Z,7.47
2018-04-25T00:23:26.681Z,6.90
2018-04-25T00:25:52.820Z,6.60
2018-04-25T00:28:18.926Z,7.10
2018-04-25T00:30:45.750Z,6.70
2018-04-25T00:33:11.831Z,7.80
2018-04-25T00:35:37.935Z,8.57
2018-04-25T00:38:04.019Z,7.90
2018-04-25T00:40:30.131Z,9.10
2018-04-25T00:42:57.012Z,7.17
2018-04-25T00:45:23.095Z,6.53
2018-04-25T00:47:49.211Z,7.82
2018-04-25T00:50:15.290Z,7.53
2018-04-25T00:52:41.397Z,6.90
2018-04-25T00:55:07.478Z,7.97
2018-04-25T00:57:34.297Z,9.65
2018-04-25T01:00:00.421Z,9.63
2018-04-25T01:02:26.527Z,9.00
2018-04-25T01:04:52.647Z,9.17
2018-04-25T01:07:19.562Z,9.83
2018-04-25T01:09:45.718Z,8.37
2018-04-25T01:12:11.822Z,8.80
2018-04-25T01:14:37.923Z,9.60
2018-04-25T01:17:04.734Z,9.37
2018-04-25T01:19:30.896Z,10.07
2018-04-25T01:21:56.971Z,9.83
2018-04-25T01:24:23.110Z,9.20
2018-04-25T01:26:50.236Z,8.90
2018-04-25T01:29:16.347Z,9.10
2018-04-25T01:31:46.275Z,9.80
2018-04-25T01:34:13.330Z,8.60
2018-04-25T01:40:00.606Z,8.27
2018-04-25T01:45:47.782Z,8.13
2018-04-25T01:48:19.734Z,8.60
2018-04-25T01:50:45.802Z,8.77
2018-04-25T01:53:24.158Z,8.63
2018-04-25T01:56:02.661Z,9.23
2018-04-25T01:58:41.039Z,10.13
2018-04-25T02:01:19.182Z,8.53
2018-04-25T02:03:53.410Z,9.10
2018-04-25T02:06:19.516Z,9.20
2018-04-25T02:08:46.362Z,9.40
2018-04-25T02:11:13.218Z,8.07
2018-04-25T02:13:40.045Z,9.10
2018-04-25T02:16:06.258Z,9.03
2018-04-25T02:18:34.279Z,10.00
2018-04-25T02:21:00.364Z,8.93
2018-04-25T02:23:26.464Z,9.90
2018-04-25T02:25:52.543Z,9.87
2018-04-25T02:28:18.651Z,10.43
2018-04-25T02:30:45.471Z,9.70
2018-04-25T02:33:11.571Z,10.80
2018-04-25T02:35:37.679Z,10.63
2018-04-25T02:38:03.780Z,13.13
2018-04-25T02:40:29.870Z,12.40
2018-04-25T02:42:56.711Z,12.17
2018-04-25T02:45:23.545Z,12.10
2018-04-25T02:47:49.618Z,12.70
2018-04-25T02:50:16.478Z,11.10
2018-04-25T02:52:42.576Z,12.50
2018-04-25T02:55:08.677Z,11.57
2018-04-25T02:57:34.754Z,12.33
2018-04-25T03:00:00.892Z,12.83
2018-04-25T03:02:27.009Z,11.40
2018-04-25T03:04:53.244Z,11.37
2018-04-25T03:07:19.347Z,11.70
2018-04-25T03:09:46.179Z,10.57
2018-04-25T03:12:12.297Z,11.67
2018-04-25T03:14:38.370Z,9.77
2018-04-25T03:17:05.173Z,10.33
2018-04-25T03:19:31.322Z,11.50
2018-04-25T03:21:57.426Z,11.43
2018-04-25T03:24:23.567Z,10.70
2018-04-25T03:26:49.642Z,11.17
2018-04-25T03:29:15.747Z,9.93
2018-04-25T03:31:41.815Z,11.73
2018-04-25T03:34:07.896Z,11.37
2018-04-25T03:36:34.730Z,9.60
2018-04-25T03:39:00.811Z,9.97
2018-04-25T03:41:26.933Z,10.83
2018-04-25T03:43:53.014Z,12.10
2018-04-25T03:46:19.115Z,9.83
2018-04-25T03:48:45.209Z,11.63
2018-04-25T03:51:11.290Z,12.23
2018-04-25T03:53:37.410Z,10.40
2018-04-25T03:56:04.251Z,11.07
2018-04-25T03:58:31.083Z,10.07
2018-04-25T04:00:57.206Z,9.70
2018-04-25T04:03:23.286Z,10.30
2018-04-25T04:05:50.173Z,10.17
2018-04-25T04:08:16.257Z,9.83
2018-04-25T04:10:42.333Z,8.97
2018-04-25T04:13:09.155Z,10.00
2018-04-25T04:15:35.223Z,10.07
2018-04-25T04:18:02.051Z,9.97
2018-04-25T04:20:28.122Z,9.73
2018-04-25T04:22:54.211Z,10.30
2018-04-25T04:25:20.293Z,12.17
2018-04-25T04:27:46.384Z,9.80
2018-04-25T04:30:12.478Z,10.10
2018-04-25T04:32:38.619Z,9.40
2018-04-25T04:35:04.714Z,10.33
2018-04-25T04:37:30.807Z,9.30
2018-04-25T04:39:56.881Z,10.03
2018-04-25T04:42:22.981Z,9.80
2018-04-25T04:44:49.101Z,9.97
2018-04-25T04:47:15.201Z,10.37
2018-04-25T04:49:41.299Z,9.67
2018-04-25T04:52:07.376Z,9.57
2018-04-25T04:54:33.466Z,9.57
2018-04-25T04:56:59.569Z,9.90
2018-04-25T04:59:26.390Z,9.83
2018-04-25T05:01:52.466Z,9.50
2018-04-25T05:04:18.557Z,10.57
2018-04-25T05:06:44.637Z,9.43
2018-04-25T05:09:10.731Z,9.40
2018-04-25T05:11:36.818Z,8.80
2018-04-25T05:14:03.652Z,8.73
2018-04-25T05:16:29.730Z,8.90
2018-04-25T05:18:55.825Z,10.00
2018-04-25T05:21:21.902Z,8.23
2018-04-25T05:23:47.990Z,9.43
2018-04-25T05:26:14.078Z,8.67
2018-04-25T05:28:40.149Z,10.60
2018-04-25T05:31:06.215Z,9.00
2018-04-25T05:33:32.294Z,8.20
2018-04-25T05:35:58.361Z,9.10
2018-04-25T05:38:24.431Z,9.70
2018-04-25T05:40:50.523Z,9.10
2018-04-25T05:43:16.656Z,9.93
2018-04-25T05:45:42.745Z,8.57
2018-04-25T05:48:08.930Z,9.70
2018-04-25T05:50:35.027Z,8.03
2018-04-25T05:53:01.102Z,8.70
2018-04-25T05:55:27.178Z,9.27
2018-04-25T05:57:53.284Z,8.53
2018-04-25T06:00:19.365Z,8.83
2018-04-25T06:02:45.433Z,9.33
2018-04-25T06:05:12.274Z,8.63
2018-04-25T06:07:38.341Z,8.60
2018-04-25T06:10:04.434Z,10.77
2018-04-25T06:12:30.555Z,9.63
2018-04-25T06:14:56.604Z,8.87
2018-04-25T06:17:22.700Z,9.23
2018-04-25T06:19:48.789Z,8.70
2018-04-25T06:22:14.862Z,9.70
2018-04-25T06:24:40.957Z,8.73
2018-04-25T06:27:07.049Z,10.17
2018-04-25T06:29:33.144Z,8.87
2018-04-25T06:32:00.075Z,9.13
2018-04-25T06:34:26.168Z,8.10
2018-04-25T06:36:52.267Z,9.07
2018-04-25T06:39:18.345Z,8.60
2018-04-25T06:41:44.427Z,9.10
2018-04-25T06:44:10.497Z,7.47
2018-04-25T06:46:37.309Z,9.20
2018-04-25T06:49:03.389Z,8.50
2018-04-25T06:51:30.206Z,7.50
2018-04-25T06:53:56.285Z,7.33
2018-04-25T06:56:22.370Z,8.07
2018-04-25T06:58:48.450Z,7.73
2018-04-25T07:01:15.311Z,7.80
2018-04-25T07:03:42.137Z,7.33
2018-04-25T07:06:08.203Z,8.00
2018-04-25T07:08:35.022Z,7.93
2018-04-25T07:11:01.115Z,9.40
2018-04-25T07:13:27.228Z,7.80
2018-04-25T07:15:53.306Z,7.20
2018-04-25T07:18:19.377Z,6.67
2018-04-25T07:20:45.453Z,6.73
2018-04-25T07:23:12.275Z,7.03
2018-04-25T07:25:38.376Z,6.80
2018-04-25T07:28:04.472Z,6.90
2018-04-25T07:30:31.313Z,6.53
2018-04-25T07:32:57.400Z,5.90
2018-04-25T07:35:23.537Z,6.30
2018-04-25T07:37:50.542Z,6.37
2018-04-25T07:40:16.630Z,5.50
2018-04-25T07:42:42.706Z,5.10
2018-04-25T07:45:08.785Z,5.97
2018-04-25T07:47:35.622Z,5.23
2018-04-25T07:50:01.699Z,5.17
2018-04-25T07:52:27.769Z,4.77
2018-04-25T07:54:53.844Z,4.50
2018-04-25T07:57:19.917Z,5.00
2018-04-25T07:59:46.015Z,4.60
2018-04-25T08:02:12.093Z,4.73
2018-04-25T08:04:38.158Z,4.00
2018-04-25T08:07:04.245Z,4.60
2018-04-25T08:09:31.075Z,5.13
2018-04-25T08:11:57.151Z,3.50
2018-04-25T08:14:35.451Z,5.47
2018-04-25T08:20:20.645Z,5.27
2018-04-25T08:22:46.731Z,3.30
2018-04-25T08:25:12.819Z,4.30
2018-04-25T08:27:38.893Z,5.20
2018-04-25T08:30:05.711Z,5.93
2018-04-25T08:32:31.776Z,3.77
2018-04-25T08:34:58.603Z,4.20
2018-04-25T08:37:24.690Z,5.43
2018-04-25T08:39:50.909Z,4.93
2018-04-25T08:42:17.727Z,5.20
2018-04-25T08:44:43.901Z,4.90
2018-04-25T08:47:10.638Z,5.47
2018-04-25T08:49:36.714Z,5.80
2018-04-25T08:52:02.790Z,5.80
2018-04-25T08:54:28.861Z,5.90
2018-04-25T08:56:54.927Z,6.00
2018-04-25T08:59:21.123Z,5.70
2018-04-25T09:01:47.145Z,5.20
2018-04-25T09:04:13.221Z,5.40
2018-04-25T09:06:39.303Z,5.53
2018-04-25T09:09:05.386Z,6.70
2018-04-25T09:11:31.470Z,6.20
2018-04-25T09:13:57.543Z,7.30
2018-04-25T09:16:23.631Z,5.67
2018-04-25T09:18:49.698Z,5.93
2018-04-25T09:21:15.769Z,7.00
2018-04-25T09:23:41.851Z,6.47
2018-04-25T09:26:07.946Z,7.63
2018-04-25T09:28:34.023Z,6.80
2018-04-25T09:31:00.146Z,6.37
2018-04-25T09:33:26.976Z,7.33
2018-04-25T09:35:53.062Z,5.83
2018-04-25T09:38:19.123Z,7.80
2018-04-25T09:40:45.197Z,6.97
2018-04-25T09:43:11.269Z,7.50
2018-04-25T09:45:37.357Z,6.90
2018-04-25T09:48:03.449Z,8.67
2018-04-25T09:50:29.568Z,7.17
2018-04-25T09:52:55.634Z,7.23
2018-04-25T09:55:21.705Z,7.50
2018-04-25T09:57:47.809Z,7.50
2018-04-25T10:00:13.909Z,6.73
2018-04-25T10:02:40.745Z,5.53
2018-04-25T10:05:06.812Z,8.63
2018-04-25T10:07:33.634Z,8.70
2018-04-25T10:09:59.693Z,7.57
2018-04-25T10:12:26.514Z,7.23
2018-04-25T10:14:52.569Z,7.17
2018-04-25T10:17:18.739Z,8.30
2018-04-25T10:19:44.741Z,7.90
2018-04-25T10:22:10.818Z,6.13
2018-04-25T10:24:36.889Z,5.53
2018-04-25T10:27:03.722Z,6.90
2018-04-25T10:29:29.793Z,7.60
2018-04-25T10:31:55.883Z,7.90
2018-04-25T10:34:21.960Z,7.00
2018-04-25T10:36:48.043Z,6.23
2018-04-25T10:39:14.123Z,6.57
2018-04-25T10:41:40.219Z,7.37
2018-04-25T10:44:07.074Z,7.80
2018-04-25T10:46:33.879Z,7.10
2018-04-25T10:48:59.959Z,6.80
2018-04-25T10:51:26.770Z,7.10
2018-04-25T10:53:52.869Z,7.67
2018-04-25T10:56:18.938Z,7.17
2018-04-25T10:58:45.019Z,7.10
2018-04-25T11:01:11.099Z,7.50
2018-04-25T11:03:37.177Z,8.83
2018-04-25T11:06:03.263Z,9.20
2018-04-25T11:08:29.352Z,9.50
2018-04-25T11:10:55.414Z,8.40
2018-04-25T11:13:22.247Z,8.87
2018-04-25T11:15:48.316Z,9.97
2018-04-25T11:18:14.394Z,9.17
2018-04-25T11:20:40.483Z,9.90
2018-04-25T11:23:07.299Z,8.97
2018-04-25T11:25:33.395Z,8.40
2018-04-25T11:27:59.455Z,9.63
2018-04-25T11:30:25.578Z,9.67
2018-04-25T11:32:51.659Z,8.87
2018-04-25T11:35:17.730Z,9.17
2018-04-25T11:37:44.533Z,9.63
2018-04-25T11:40:10.660Z,9.13
2018-04-25T11:42:36.729Z,9.00
2018-04-25T11:45:02.834Z,9.57
2018-04-25T11:47:28.951Z,9.43
2018-04-25T11:49:55.047Z,11.53
2018-04-25T11:52:21.138Z,10.53
2018-04-25T11:54:47.203Z,9.33
2018-04-25T11:57:13.309Z,10.00
2018-04-25T11:59:39.527Z,9.27
2018-04-25T12:02:05.589Z,9.20
2018-04-25T12:04:31.658Z,9.13
2018-04-25T12:06:57.728Z,6.43
2018-04-25T12:09:24.562Z,7.30
2018-04-25T12:11:50.652Z,9.00
2018-04-25T12:14:16.847Z,7.93
2018-04-25T12:16:42.915Z,7.20
2018-04-25T12:19:09.762Z,7.40
2018-04-25T12:21:36.569Z,6.77
2018-04-25T12:24:02.687Z,7.70
2018-04-25T12:26:28.784Z,6.97
2018-04-25T12:28:55.583Z,5.50
2018-04-25T12:31:21.678Z,5.67
2018-04-25T12:33:48.528Z,6.77
2018-04-25T12:36:14.624Z,5.63
2018-04-25T12:38:40.697Z,6.87
2018-04-25T12:41:06.893Z,6.40
2018-04-25T12:43:33.015Z,6.37
2018-04-25T12:45:59.069Z,5.97
2018-04-25T12:48:25.155Z,7.00
2018-04-25T12:50:51.340Z,4.80
2018-04-25T12:53:17.420Z,5.63
2018-04-25T12:55:43.595Z,6.10
2018-04-25T12:58:10.405Z,5.80
2018-04-25T13:00:37.547Z,5.70
2018-04-25T13:03:03.648Z,5.87
2018-04-25T13:05:30.466Z,5.73
2018-04-25T13:07:56.546Z,6.97
2018-04-25T13:10:22.644Z,6.30
2018-04-25T13:12:48.744Z,6.33
2018-04-25T13:15:14.815Z,6.87
2018-04-25T13:17:40.906Z,7.10
2018-04-25T13:20:06.977Z,8.17
2018-04-25T13:22:33.077Z,7.50
2018-04-25T13:24:59.193Z,6.90
2018-04-25T13:27:26.012Z,7.90
2018-04-25T13:29:52.111Z,9.70
2018-04-25T13:32:18.247Z,8.53
2018-04-25T13:34:44.326Z,7.07
2018-04-25T13:37:10.434Z,7.47
2018-04-25T13:39:36.525Z,8.07
2018-04-25T13:42:02.678Z,8.80
2018-04-25T13:44:29.583Z,7.00
2018-04-25T13:46:55.649Z,6.90
2018-04-25T13:49:21.741Z,6.80
2018-04-25T13:51:47.822Z,7.20
2018-04-25T13:54:13.904Z,7.10
2018-04-25T13:56:39.967Z,6.97
2018-04-25T13:59:06.053Z,7.17
2018-04-25T14:01:32.135Z,7.47
2018-04-25T14:03:58.276Z,7.80
2018-04-25T14:06:24.325Z,7.27
2018-04-25T14:08:50.423Z,7.00
2018-04-25T14:11:17.252Z,6.40
2018-04-25T14:13:43.313Z,6.63
2018-04-25T14:16:10.190Z,6.43
2018-04-25T14:18:36.262Z,6.30
2018-04-25T14:21:02.345Z,6.10
2018-04-25T14:23:29.168Z,5.07
2018-04-25T14:25:55.263Z,5.47
2018-04-25T14:28:21.351Z,5.93
2018-04-25T14:30:47.492Z,5.93
2018-04-25T14:33:13.557Z,5.70
2018-04-25T14:35:39.645Z,4.77
2018-04-25T14:38:05.755Z,4.93
2018-04-25T14:40:31.889Z,5.60
2018-04-25T14:42:58.726Z,4.90
2018-04-25T14:45:24.829Z,4.80
2018-04-25T14:47:50.909Z,4.30
2018-04-25T14:50:16.985Z,4.90
2018-04-25T14:52:43.078Z,2.90
2018-04-25T14:55:09.157Z,3.30
2018-04-25T14:57:35.238Z,4.40
2018-04-25T15:00:02.075Z,4.40
2018-04-25T15:02:28.160Z,3.67
2018-04-25T15:04:54.299Z,3.53
2018-04-25T15:07:20.395Z,4.33
2018-04-25T15:09:46.495Z,3.80
2018-04-25T15:12:12.571Z,3.13
2018-04-25T15:14:38.738Z,3.43
2018-04-25T15:17:04.883Z,2.80
2018-04-25T15:19:30.967Z,3.20
2018-04-25T15:21:57.150Z,2.80
2018-04-25T15:24:23.978Z,3.17
2018-04-25T15:26:50.223Z,3.07
2018-04-25T15:29:16.393Z,3.00
2018-04-25T15:31:42.506Z,3.47
2018-04-25T15:34:08.582Z,2.97
2018-04-25T15:36:34.689Z,2.87
2018-04-25T15:39:01.564Z,3.27
2018-04-25T15:41:27.638Z,3.10
2018-04-25T15:43:53.715Z,2.80
2018-04-25T15:46:20.606Z,2.70
2018-04-25T15:48:46.767Z,2.60
2018-04-25T15:51:12.888Z,2.57
2018-04-25T15:53:39.768Z,2.90
2018-04-25T15:56:05.839Z,2.50
2018-04-25T15:58:32.058Z,3.30
2018-04-25T16:00:58.651Z,2.73
2018-04-25T16:03:24.805Z,2.47
2018-04-25T16:05:50.891Z,2.30
2018-04-25T16:08:16.970Z,2.47
2018-04-25T16:10:45.068Z,2.40
2018-04-25T16:13:11.215Z,2.30
2018-04-25T16:15:37.355Z,1.70
2018-04-25T16:18:03.473Z,2.80
2018-04-25T16:20:29.547Z,2.40
2018-04-25T16:22:55.762Z,2.73
2018-04-25T16:25:21.785Z,2.80
2018-04-25T16:27:48.999Z,4.20
2018-04-25T16:30:15.087Z,4.23
2018-04-25T16:32:41.164Z,5.10
2018-04-25T16:35:07.257Z,4.37
2018-04-25T16:37:34.146Z,4.30
2018-04-25T16:40:00.281Z,4.13
2018-04-25T16:42:26.399Z,3.50
2018-04-25T16:44:52.554Z,3.67
2018-04-25T16:47:18.671Z,3.20
2018-04-25T16:49:45.565Z,3.53
2018-04-25T16:52:11.657Z,2.80
2018-04-25T16:54:38.546Z,2.87
2018-04-25T16:57:11.144Z,2.87
2018-04-25T16:59:37.250Z,2.70
2018-04-25T17:02:04.069Z,12.53
2018-04-25T17:04:30.974Z,2.70
2018-04-25T17:06:57.109Z,2.37
2018-04-25T17:09:23.267Z,2.10
2018-04-25T17:11:49.346Z,2.00
2018-04-25T17:14:15.530Z,2.80
2018-04-25T17:16:41.616Z,2.63
2018-04-25T17:19:07.689Z,2.80
2018-04-25T17:21:34.523Z,1.77
2018-04-25T17:24:00.622Z,1.87
2018-04-25T17:26:26.742Z,1.90
2018-04-25T17:28:52.821Z,1.80
2018-04-25T17:31:18.903Z,2.23
2018-04-25T17:33:44.987Z,2.00
2018-04-25T17:36:11.072Z,2.00
2018-04-25T17:38:37.923Z,1.77
2018-04-25T17:41:04.770Z,1.67
2018-04-25T17:43:31.577Z,2.10
2018-04-25T17:45:57.674Z,2.27
2018-04-25T17:48:24.485Z,2.80
2018-04-25T17:50:50.595Z,2.47
2018-04-25T17:53:16.737Z,2.80
2018-04-25T17:55:42.835Z,2.80
2018-04-25T17:58:09.645Z,3.07
2018-04-25T18:00:35.814Z,2.50
2018-04-25T18:03:01.897Z,2.57
2018-04-25T18:05:28.755Z,2.63
2018-04-25T18:07:54.829Z,2.60
2018-04-25T18:10:20.920Z,3.60
2018-04-25T18:12:47.026Z,3.00
2018-04-25T18:15:13.837Z,2.83
2018-04-25T18:17:39.921Z,3.00
2018-04-25T18:20:06.741Z,2.90
2018-04-25T18:22:32.827Z,2.90
2018-04-25T18:24:59.697Z,2.43
2018-04-25T18:27:25.849Z,3.50
2018-04-25T18:29:51.925Z,3.40
2018-04-25T18:32:18.174Z,3.50
2018-04-25T18:34:44.281Z,3.43
2018-04-25T18:37:10.385Z,3.00
2018-04-25T18:39:36.495Z,3.43
2018-04-25T18:42:02.594Z,4.40
2018-04-25T18:44:28.711Z,3.50
2018-04-25T18:46:54.807Z,4.57
2018-04-25T18:49:21.057Z,3.93
2018-04-25T18:51:47.124Z,2.37
2018-04-25T18:54:13.217Z,3.33
2018-04-25T18:56:39.317Z,2.60
2018-04-25T18:59:05.486Z,3.00
2018-04-25T19:01:31.556Z,3.07
2018-04-25T19:03:57.675Z,3.30
2018-04-25T19:06:24.587Z,3.93
2018-04-25T19:08:51.436Z,3.20
2018-04-25T19:11:17.522Z,3.30
2018-04-25T19:13:43.637Z,3.37
2018-04-25T19:16:09.720Z,3.10
2018-04-25T19:18:36.602Z,3.60
2018-04-25T19:21:02.752Z,3.37
2018-04-25T19:23:28.881Z,3.60
2018-04-25T19:25:55.077Z,4.37
2018-04-25T19:28:21.119Z,3.50
2018-04-25T19:30:48.011Z,3.90
2018-04-25T19:33:14.086Z,5.17
2018-04-25T19:35:40.189Z,3.97
2018-04-25T19:38:06.289Z,4.20
2018-04-25T19:40:33.122Z,4.60
2018-04-25T19:42:59.213Z,4.30
2018-04-25T19:45:25.349Z,4.37
2018-04-25T19:47:51.475Z,3.80
2018-04-25T19:50:18.354Z,3.80
2018-04-25T19:52:44.441Z,4.03
2018-04-25T19:55:10.628Z,4.90
2018-04-25T19:57:36.709Z,3.93
2018-04-25T20:00:02.838Z,4.77
2018-04-25T20:02:28.959Z,4.50
2018-04-25T20:04:55.119Z,4.10
2018-04-25T20:07:21.213Z,4.87
2018-04-25T20:09:47.319Z,4.50
2018-04-25T20:12:14.133Z,4.53
2018-04-25T20:14:40.198Z,3.90
2018-04-25T20:17:06.343Z,4.53
2018-04-25T20:19:32.444Z,3.63
2018-04-25T20:21:58.517Z,3.67
2018-04-25T20:24:24.650Z,3.53
2018-04-25T20:26:50.848Z,3.80
2018-04-25T20:29:16.925Z,4.00
2018-04-25T20:31:43.024Z,4.40
2018-04-25T20:34:09.092Z,4.57
2018-04-25T20:36:35.166Z,4.17
2018-04-25T20:39:01.982Z,5.30
2018-04-25T20:41:28.104Z,4.20
2018-04-25T20:43:54.211Z,4.00
2018-04-25T20:46:20.330Z,3.60
2018-04-25T20:48:47.151Z,3.67
2018-04-25T20:51:13.251Z,3.17
2018-04-25T20:53:39.331Z,3.30
2018-04-25T20:56:05.476Z,3.53
2018-04-25T20:58:31.564Z,3.10
2018-04-25T21:00:57.688Z,3.67
2018-04-25T21:03:24.602Z,3.60
2018-04-25T21:05:50.765Z,2.50
2018-04-25T21:08:17.597Z,2.90
2018-04-25T21:10:43.695Z,3.10
2018-04-25T21:13:09.784Z,3.20
2018-04-25T21:15:35.885Z,2.80
2018-04-25T21:18:01.982Z,3.23
2018-04-25T21:20:28.819Z,3.30
2018-04-25T21:22:54.930Z,2.93
2018-04-25T21:25:21.029Z,2.73
2018-04-25T21:27:47.128Z,3.00
2018-04-25T21:30:13.205Z,3.33
2018-04-25T21:32:39.282Z,3.13
2018-04-25T21:35:05.349Z,2.90
2018-04-25T21:37:31.440Z,3.00
2018-04-25T21:39:57.534Z,3.30
2018-04-25T21:42:24.371Z,2.70
2018-04-25T21:44:50.467Z,2.60
2018-04-25T21:47:16.566Z,3.00
2018-04-25T21:49:43.428Z,3.27
2018-04-25T21:52:10.325Z,2.80
2018-04-25T21:54:36.423Z,2.50
2018-04-25T21:57:03.246Z,2.63
2018-04-25T21:59:29.347Z,2.57
2018-04-25T22:01:55.442Z,2.53
2018-04-25T22:04:22.275Z,2.67
2018-04-25T22:06:48.379Z,2.63
2018-04-25T22:09:15.208Z,2.40
2018-04-25T22:11:42.031Z,2.57
2018-04-25T22:14:08.137Z,2.80
2018-04-25T22:16:34.217Z,2.43
2018-04-25T22:19:00.342Z,2.97
2018-04-25T22:21:26.429Z,2.93
2018-04-25T22:23:52.506Z,2.50
2018-04-25T22:26:18.603Z,2.80
2018-04-25T22:28:44.697Z,2.20
2018-04-25T22:31:10.791Z,2.80
2018-04-25T22:33:36.877Z,3.50
2018-04-25T22:36:02.961Z,2.63
2018-04-25T22:38:29.094Z,2.53
2018-04-25T22:40:55.192Z,2.80
2018-04-25T22:43:21.334Z,2.47
2018-04-25T22:45:47.403Z,2.80
2018-04-25T22:48:14.312Z,2.90
2018-04-25T22:50:40.388Z,2.70
2018-04-25T22:53:07.255Z,2.23
2018-04-25T22:55:33.301Z,2.77
2018-04-25T22:57:59.389Z,2.63
2018-04-25T23:00:25.488Z,2.80
2018-04-25T23:02:51.613Z,2.80
2018-04-25T23:05:17.691Z,2.87
2018-04-25T23:07:43.784Z,3.03
2018-04-25T23:10:09.892Z,3.07
2018-04-25T23:12:35.958Z,2.70
2018-04-25T23:15:02.080Z,3.47
2018-04-25T23:17:28.892Z,3.60
2018-04-25T23:19:54.973Z,3.53
2018-04-25T23:22:21.780Z,2.97
2018-04-25T23:24:47.868Z,3.00
2018-04-25T23:27:14.673Z,3.10
2018-04-25T23:29:40.770Z,3.13
2018-04-25T23:32:06.864Z,3.40
2018-04-25T23:34:32.957Z,3.17
2018-04-25T23:36:59.041Z,3.40
2018-04-25T23:39:25.189Z,4.13
2018-04-25T23:41:51.244Z,3.30
2018-04-25T23:44:18.124Z,3.53
2018-04-25T23:46:44.200Z,3.87
2018-04-25T23:49:10.267Z,3.90
2018-04-25T23:51:36.446Z,3.60
2018-04-25T23:54:02.521Z,3.47
2018-04-25T23:56:28.656Z,4.07
2018-04-25T23:58:54.742Z,4.40
